Time;durP1;ratioP1;P1;durP2;ratioP2;P2;SDS_P1;SDS_P2;PMS_P1;PMS_P2;Temp;Humidity;BMP_temperature;BMP_pressure;BME280_temperature;BME280_humidity;BME280_pressure;Samples;Min_cycle;Max_cycle;Signal;HPM_P1;HPM_P2
2022/05/28 00:00:27;;;;;;;1.15;1.15;;;13.80;99.90;;;;;;5175729;28;20028;-75
2022/05/28 00:02:59;;;;;;;1.00;1.00;;;13.80;99.90;;;;;;5172676;28;20037;-75
2022/05/28 00:05:40;;;;;;;1.55;1.45;;;13.80;99.90;;;;;;5172876;28;20462;-78
2022/05/28 00:08:14;;;;;;;1.38;1.27;;;13.90;99.90;;;;;;5189690;28;20039;-78
2022/05/28 00:10:45;;;;;;;1.27;1.17;;;14.00;99.90;;;;;;5205723;28;20047;-81
2022/05/28 00:13:19;;;;;;;1.35;1.25;;;14.10;99.90;;;;;;5202401;28;20039;-74
2022/05/28 00:15:57;;;;;;;1.20;1.10;;;14.00;99.90;;;;;;5189002;28;20452;-80
2022/05/28 00:18:28;;;;;;;3.97;1.70;;;13.90;99.90;;;;;;5200833;28;20035;-78
2022/05/28 00:21:01;;;;;;;2.38;1.27;;;13.90;99.90;;;;;;5208817;28;20035;-77
2022/05/28 00:23:35;;;;;;;3.95;1.23;;;13.90;99.90;;;;;;5209595;28;20349;-76
2022/05/28 00:26:09;;;;;;;1.20;1.10;;;13.90;99.90;;;;;;5210045;28;20024;-78
2022/05/28 00:28:40;;;;;;;1.50;1.40;;;13.90;99.90;;;;;;5210291;28;20245;-81
2022/05/28 00:31:14;;;;;;;1.40;1.30;;;14.00;99.90;;;;;;5202778;28;20208;-77
2022/05/28 00:33:45;;;;;;;1.35;1.25;;;13.90;99.90;;;;;;5201705;28;20026;-74
2022/05/28 00:36:16;;;;;;;1.20;1.10;;;14.00;99.90;;;;;;5207915;28;20041;-75
2022/05/28 00:38:48;;;;;;;1.27;1.15;;;13.90;99.90;;;;;;5191776;28;20040;-74
2022/05/28 00:41:22;;;;;;;1.50;1.25;;;14.00;99.90;;;;;;5177377;28;20032;-77
2022/05/28 00:43:53;;;;;;;1.38;1.27;;;14.00;99.90;;;;;;5189923;28;20251;-78
2022/05/28 00:46:28;;;;;;;1.17;1.17;;;13.90;99.90;;;;;;5198879;28;20040;-76
2022/05/28 00:49:05;;;;;;;1.30;1.20;;;14.00;99.90;;;;;;5209101;28;20042;-79
2022/05/28 00:51:47;;;;;;;1.33;1.23;;;14.00;99.90;;;;;;5200755;28;20021;-78
2022/05/28 00:54:20;;;;;;;1.42;0.93;;;14.00;99.90;;;;;;5209267;28;20032;-76
2022/05/28 00:56:52;;;;;;;1.30;1.20;;;14.00;99.90;;;;;;5208094;28;20036;-76
2022/05/28 00:59:23;;;;;;;1.40;1.30;;;14.00;99.90;;;;;;5195026;28;20036;-75
2022/05/28 01:02:02;;;;;;;1.27;1.17;;;14.10;99.90;;;;;;5209074;28;20035;-79
2022/05/28 01:04:33;;;;;;;1.30;1.20;;;14.10;99.90;;;;;;5200063;28;20079;-74
2022/05/28 01:07:13;;;;;;;1.10;1.00;;;14.10;99.90;;;;;;5185196;28;20056;-79
2022/05/28 01:10:03;;;;;;;4.10;1.48;;;14.10;99.90;;;;;;5203518;28;20041;-80
2022/05/28 01:12:53;;;;;;;4.18;1.02;;;14.00;99.90;;;;;;5202912;28;20481;-75
2022/05/28 01:15:33;;;;;;;1.27;1.20;;;14.00;99.90;;;;;;5201649;28;20017;-76
2022/05/28 01:18:28;;;;;;;2.60;1.73;;;14.00;99.90;;;;;;5190269;28;20025;-76
2022/05/28 01:21:08;;;;;;;1.95;1.23;;;14.00;99.90;;;;;;5187210;28;20044;-75
2022/05/28 01:24:06;;;;;;;1.52;1.35;;;13.90;99.90;;;;;;5221542;28;20350;-75
2022/05/28 01:27:09;;;;;;;1.30;1.20;;;14.00;99.90;;;;;;5228728;28;20029;-76
2022/05/28 01:29:54;;;;;;;1.88;1.30;;;13.90;99.90;;;;;;5207175;28;20578;-76
2022/05/28 01:32:26;;;;;;;1.20;1.10;;;14.00;99.90;;;;;;5206890;28;20021;-78
2022/05/28 01:35:00;;;;;;;1.10;1.10;;;14.00;99.90;;;;;;5201212;28;20029;-76
2022/05/28 01:37:32;;;;;;;1.48;1.38;;;14.00;99.90;;;;;;5191446;28;20029;-77
2022/05/28 01:40:09;;;;;;;1.02;0.98;;;14.00;99.90;;;;;;5205551;28;20025;-79
2022/05/28 01:42:48;;;;;;;1.38;1.27;;;14.10;99.90;;;;;;5199984;28;20034;-77
2022/05/28 01:45:30;;;;;;;1.30;1.30;;;14.10;99.90;;;;;;5186600;28;20063;-78
2022/05/28 01:48:08;;;;;;;1.70;1.60;;;14.10;99.90;;;;;;5186674;28;20021;-78
2022/05/28 01:50:49;;;;;;;1.42;1.00;;;14.10;99.90;;;;;;5186226;28;20036;-74
2022/05/28 01:56:15;;;;;;;1.02;1.02;;;14.10;99.90;;;;;;5208114;28;20184;-79
2022/05/28 01:58:47;;;;;;;1.20;1.20;;;14.10;99.90;;;;;;5189351;28;20030;-76
2022/05/28 02:01:21;;;;;;;20.10;1.83;;;14.10;99.90;;;;;;5208288;28;20035;-76
2022/05/28 02:04:00;;;;;;;1.63;1.50;;;14.10;99.90;;;;;;5208983;28;20029;-74
2022/05/28 02:06:41;;;;;;;1.08;1.08;;;14.10;99.90;;;;;;5213976;28;20044;-75
2022/05/28 02:09:20;;;;;;;1.38;1.27;;;14.20;99.90;;;;;;5208398;28;20034;-78
2022/05/28 02:12:29;;;;;;;1.40;1.30;;;14.10;99.90;;;;;;5203685;28;20260;-78
2022/05/28 02:15:15;;;;;;;1.45;1.35;;;14.10;99.90;;;;;;5208447;28;20036;-74
2022/05/28 02:17:55;;;;;;;2.15;1.98;;;14.20;99.90;;;;;;5208103;28;20029;-76
2022/05/28 02:20:54;;;;;;;1.33;1.20;;;14.20;99.90;;;;;;5207257;28;20027;-75
2022/05/28 02:23:35;;;;;;;1.52;1.40;;;14.20;99.90;;;;;;5207685;28;20032;-76
2022/05/28 02:26:11;;;;;;;1.50;1.40;;;14.20;99.90;;;;;;5208853;28;20031;-75
2022/05/28 02:28:47;;;;;;;1.38;1.23;;;14.20;99.90;;;;;;5206913;28;20029;-77
2022/05/28 02:31:23;;;;;;;1.40;1.30;;;14.20;99.90;;;;;;5208379;28;20025;-79
2022/05/28 02:33:55;;;;;;;1.77;1.67;;;14.10;99.90;;;;;;5208321;28;20021;-75
2022/05/28 02:36:27;;;;;;;1.30;1.23;;;14.20;99.90;;;;;;5205315;28;20056;-78
2022/05/28 02:38:58;;;;;;;1.83;1.73;;;14.20;99.90;;;;;;5204776;28;20029;-76
2022/05/28 02:41:35;;;;;;;1.40;1.30;;;14.20;99.90;;;;;;5202612;28;20029;-76
2022/05/28 02:44:09;;;;;;;1.23;1.20;;;14.20;99.90;;;;;;5205126;28;20353;-77
2022/05/28 02:46:41;;;;;;;1.88;1.77;;;14.20;99.90;;;;;;5206654;28;20027;-74
2022/05/28 02:49:14;;;;;;;2.10;1.50;;;14.20;99.90;;;;;;5206838;28;20235;-77
2022/05/28 02:51:48;;;;;;;2.85;1.88;;;14.20;99.90;;;;;;5203930;28;20021;-78
2022/05/28 02:54:22;;;;;;;1.77;1.67;;;14.20;99.90;;;;;;5208498;28;20017;-77
2022/05/28 02:56:58;;;;;;;4.43;1.60;;;14.20;99.90;;;;;;5205629;28;20200;-76
2022/05/28 02:59:29;;;;;;;1.20;1.10;;;14.20;99.90;;;;;;5206769;28;20052;-78
2022/05/28 03:02:00;;;;;;;1.73;1.33;;;14.10;99.90;;;;;;5210793;28;20045;-77
2022/05/28 03:04:34;;;;;;;4.20;1.60;;;14.10;99.90;;;;;;5203700;28;20053;-79
2022/05/28 03:07:07;;;;;;;1.92;1.83;;;14.10;99.90;;;;;;5220960;28;20029;-80
2022/05/28 03:09:41;;;;;;;1.38;1.27;;;14.10;99.90;;;;;;5198831;28;20033;-80
2022/05/28 03:12:16;;;;;;;1.90;1.67;;;14.10;99.90;;;;;;5203460;28;20452;-78
2022/05/28 03:14:54;;;;;;;1.65;1.55;;;14.10;99.90;;;;;;5207447;28;20025;-76
2022/05/28 03:17:28;;;;;;;1.70;1.60;;;14.10;99.90;;;;;;5210150;28;20037;-78
2022/05/28 03:20:01;;;;;;;1.25;1.25;;;14.00;99.90;;;;;;5201861;28;20038;-78
2022/05/28 03:22:32;;;;;;;1.83;1.73;;;13.90;99.90;;;;;;5189680;28;20247;-78
2022/05/28 03:25:06;;;;;;;2.05;1.90;;;13.70;99.90;;;;;;5189845;28;20035;-80
2022/05/28 03:27:42;;;;;;;1.60;1.50;;;13.70;99.90;;;;;;5195729;28;20018;-79
2022/05/28 03:30:16;;;;;;;1.40;1.30;;;13.60;99.90;;;;;;5209809;28;20328;-81
2022/05/28 03:32:49;;;;;;;2.10;1.80;;;13.50;99.90;;;;;;5222836;28;20037;-81
2022/05/28 03:35:24;;;;;;;3.42;1.58;;;13.50;99.90;;;;;;5191498;28;20038;-77
2022/05/28 03:37:55;;;;;;;1.40;1.30;;;13.50;99.90;;;;;;5206728;28;20584;-77
2022/05/28 03:40:29;;;;;;;1.77;1.58;;;13.40;99.90;;;;;;5193340;28;20412;-78
2022/05/28 03:43:02;;;;;;;4.93;1.80;;;13.40;99.90;;;;;;5173166;28;20036;-77
2022/05/28 03:45:33;;;;;;;1.98;1.77;;;13.30;99.90;;;;;;5192328;28;20034;-78
2022/05/28 03:48:10;;;;;;;1.73;1.63;;;13.30;99.90;;;;;;5192733;28;20040;-79
2022/05/28 03:50:44;;;;;;;1.50;1.30;;;13.20;99.90;;;;;;5175493;28;20032;-77
2022/05/28 03:53:21;;;;;;;1.67;1.58;;;13.20;99.90;;;;;;5191618;28;20417;-79
2022/05/28 03:55:55;;;;;;;2.72;1.50;;;13.20;99.90;;;;;;5172890;28;20026;-77
2022/05/28 03:58:26;;;;;;;4.88;1.60;;;13.20;99.90;;;;;;5197792;28;20027;-76
2022/05/28 04:00:57;;;;;;;1.38;1.33;;;13.10;99.90;;;;;;5210715;28;20025;-75
2022/05/28 04:03:28;;;;;;;2.53;2.33;;;13.10;99.90;;;;;;5210990;28;20025;-80
2022/05/28 04:06:00;;;;;;;4.70;1.92;;;13.10;99.90;;;;;;5198955;28;20045;-78
2022/05/28 04:08:34;;;;;;;2.22;1.55;;;13.10;99.90;;;;;;5195882;28;20025;-77
2022/05/28 04:11:06;;;;;;;1.97;1.57;;;13.10;99.90;;;;;;5193238;28;20047;-80
2022/05/28 04:13:43;;;;;;;1.65;1.55;;;13.20;99.90;;;;;;5211228;28;20035;-79
2022/05/28 04:16:16;;;;;;;1.73;1.63;;;13.20;99.90;;;;;;5192878;28;20499;-78
2022/05/28 04:18:50;;;;;;;1.58;1.48;;;13.20;99.90;;;;;;5209306;28;20025;-75
2022/05/28 04:21:21;;;;;;;1.60;1.50;;;13.30;99.90;;;;;;5210739;28;20035;-78
2022/05/28 04:23:55;;;;;;;1.13;1.10;;;13.30;99.90;;;;;;5193545;28;20254;-75
2022/05/28 04:26:26;;;;;;;1.80;1.70;;;13.40;99.90;;;;;;5211051;28;20026;-79
2022/05/28 04:28:58;;;;;;;1.48;1.38;;;13.40;99.90;;;;;;5210403;28;20038;-74
2022/05/28 04:31:29;;;;;;;2.55;1.20;;;13.40;99.90;;;;;;5195303;28;20488;-80
2022/05/28 04:34:03;;;;;;;1.77;1.67;;;13.30;99.90;;;;;;5193856;28;20042;-79
2022/05/28 04:36:37;;;;;;;3.15;1.38;;;13.30;99.90;;;;;;5211380;28;20044;-78
2022/05/28 04:39:16;;;;;;;1.23;1.15;;;13.40;99.90;;;;;;5211272;28;20026;-78
2022/05/28 04:41:49;;;;;;;1.55;1.45;;;13.40;99.90;;;;;;5198753;28;20068;-75
2022/05/28 04:44:21;;;;;;;1.55;1.45;;;13.40;99.90;;;;;;5231391;28;20035;-77
2022/05/28 04:46:52;;;;;;;2.35;1.50;;;13.40;99.90;;;;;;5173902;28;20030;-77
2022/05/28 04:49:23;;;;;;;1.50;1.40;;;13.40;99.90;;;;;;5192048;28;20022;-77
2022/05/28 04:51:58;;;;;;;1.90;1.80;;;13.50;99.90;;;;;;5191262;28;20025;-78
2022/05/28 04:54:29;;;;;;;1.60;1.50;;;13.50;99.90;;;;;;5207265;28;20025;-77
2022/05/28 04:57:06;;;;;;;1.52;1.42;;;13.50;99.90;;;;;;5192448;28;20037;-78
2022/05/28 04:59:39;;;;;;;2.95;1.50;;;13.50;99.90;;;;;;5210512;28;20031;-80
2022/05/28 05:02:11;;;;;;;1.40;1.40;;;13.60;99.90;;;;;;5193158;28;20032;-76
2022/05/28 05:04:45;;;;;;;1.58;1.48;;;13.60;99.90;;;;;;5160679;28;20561;-75
2022/05/28 05:07:16;;;;;;;1.65;1.55;;;13.60;99.90;;;;;;5163001;28;20034;-77
2022/05/28 05:09:47;;;;;;;2.35;1.42;;;13.70;99.90;;;;;;5189074;28;20029;-75
2022/05/28 05:12:19;;;;;;;1.60;1.50;;;13.70;99.90;;;;;;5211971;28;20299;-74
2022/05/28 05:14:53;;;;;;;1.50;1.40;;;13.80;99.90;;;;;;5194761;28;20025;-75
2022/05/28 05:17:24;;;;;;;3.00;1.50;;;13.90;99.90;;;;;;5194511;28;20025;-73
2022/05/28 05:19:58;;;;;;;1.55;1.45;;;13.90;99.90;;;;;;5190847;28;20061;-78
2022/05/28 05:22:29;;;;;;;1.60;1.50;;;14.00;99.90;;;;;;5186878;28;20457;-78
2022/05/28 05:25:01;;;;;;;1.75;1.45;;;14.10;99.90;;;;;;5189421;28;20408;-77
2022/05/28 05:27:32;;;;;;;1.50;1.40;;;14.20;99.90;;;;;;5198880;28;20218;-73
2022/05/28 05:30:05;;;;;;;1.30;1.20;;;14.30;99.90;;;;;;5227157;28;20021;-78
2022/05/28 05:32:36;;;;;;;2.17;1.60;;;14.20;99.90;;;;;;5209069;28;20040;-76
2022/05/28 05:35:08;;;;;;;1.50;1.40;;;14.30;99.90;;;;;;5209080;28;20037;-75
2022/05/28 05:37:39;;;;;;;1.63;1.17;;;14.40;99.90;;;;;;5188340;28;20021;-79
2022/05/28 05:40:11;;;;;;;1.50;1.40;;;14.40;99.90;;;;;;5174048;28;20051;-76
2022/05/28 05:42:46;;;;;;;1.20;1.10;;;14.60;99.90;;;;;;5209643;28;20295;-77
2022/05/28 05:45:22;;;;;;;3.03;1.63;;;14.50;99.90;;;;;;5209343;28;20029;-75
2022/05/28 05:47:53;;;;;;;1.70;1.60;;;14.40;99.90;;;;;;5192485;28;20044;-76
2022/05/28 05:50:24;;;;;;;1.95;1.80;;;14.30;99.90;;;;;;5206100;28;20464;-77
2022/05/28 05:52:55;;;;;;;2.65;1.55;;;14.40;99.90;;;;;;5209604;28;20330;-76
2022/05/28 05:55:27;;;;;;;2.22;1.65;;;14.40;99.90;;;;;;5191590;28;20069;-75
2022/05/28 05:57:58;;;;;;;1.50;1.40;;;14.40;99.90;;;;;;5208763;28;20035;-81
2022/05/28 06:00:30;;;;;;;1.48;1.38;;;14.30;99.90;;;;;;5194298;28;20025;-77
2022/05/28 06:03:05;;;;;;;3.88;1.80;;;14.30;99.90;;;;;;5208376;28;20025;-74
2022/05/28 06:05:36;;;;;;;;;;;14.30;99.90;;;;;;5217343;28;20702;-79
2022/05/28 06:08:15;;;;;;;2.45;1.98;;;14.40;99.90;;;;;;5230131;28;19943;-79
2022/05/28 06:10:51;;;;;;;1.77;1.67;;;14.50;99.90;;;;;;5231995;28;20031;-81
2022/05/28 06:13:23;;;;;;;1.52;1.30;;;14.60;99.90;;;;;;5238122;28;20510;-77
2022/05/28 06:15:55;;;;;;;2.03;1.70;;;14.70;99.90;;;;;;5229699;28;20029;-79
2022/05/28 06:18:26;;;;;;;1.45;1.35;;;15.00;99.90;;;;;;5228632;28;20459;-78
2022/05/28 06:21:05;;;;;;;1.50;1.23;;;15.20;99.90;;;;;;5193477;28;20428;-79
2022/05/28 06:23:37;;;;;;;1.65;1.55;;;15.20;99.90;;;;;;5206782;28;20036;-76
2022/05/28 06:26:15;;;;;;;1.80;1.70;;;15.10;99.90;;;;;;5208731;28;20211;-74
2022/05/28 06:28:46;;;;;;;3.78;2.85;;;15.10;99.90;;;;;;5220706;28;20025;-76
2022/05/28 06:31:18;;;;;;;2.28;1.38;;;15.30;99.90;;;;;;5227321;28;20364;-77
2022/05/28 06:33:51;;;;;;;1.70;1.60;;;15.30;99.90;;;;;;5210956;28;20028;-78
2022/05/28 06:36:37;;;;;;;1.90;1.80;;;15.20;99.90;;;;;;5223505;28;20033;-75
2022/05/28 06:39:08;;;;;;;2.08;1.58;;;15.60;99.90;;;;;;5216560;28;20041;-76
2022/05/28 06:41:46;;;;;;;1.75;1.65;;;16.00;99.90;;;;;;5218892;28;20383;-76
2022/05/28 06:44:17;;;;;;;1.67;1.58;;;16.20;99.90;;;;;;5201626;28;20029;-78
2022/05/28 06:46:48;;;;;;;2.40;1.60;;;16.20;99.90;;;;;;5231150;28;20035;-77
2022/05/28 06:49:20;;;;;;;1.67;1.45;;;16.20;99.90;;;;;;5229187;28;20112;-76
2022/05/28 06:51:54;;;;;;;3.75;1.70;;;16.00;99.90;;;;;;5212447;28;20457;-75
2022/05/28 06:54:26;;;;;;;1.27;1.17;;;15.80;99.90;;;;;;5230732;28;20468;-77
2022/05/28 06:56:57;;;;;;;5.28;1.33;;;15.60;99.90;;;;;;5225141;28;20033;-76
2022/05/28 06:59:31;;;;;;;1.10;1.10;;;15.50;99.90;;;;;;5227322;28;20048;-73
2022/05/28 07:02:03;;;;;;;1.25;1.10;;;15.70;99.90;;;;;;5220140;28;20522;-76
2022/05/28 07:04:37;;;;;;;1.42;1.33;;;15.60;99.90;;;;;;5209079;28;20053;-75
2022/05/28 07:07:10;;;;;;;2.78;1.48;;;15.60;99.90;;;;;;5193610;28;20037;-76
2022/05/28 07:09:46;;;;;;;2.90;1.10;;;15.40;99.90;;;;;;5191351;28;20042;-76
2022/05/28 07:12:17;;;;;;;1.75;1.38;;;15.50;99.90;;;;;;5173133;28;20042;-74
2022/05/28 07:14:51;;;;;;;1.50;1.40;;;15.30;99.90;;;;;;5193970;28;20018;-74
2022/05/28 07:17:23;;;;;;;3.03;1.58;;;15.10;99.90;;;;;;5210583;28;20025;-74
2022/05/28 07:19:54;;;;;;;1.10;1.10;;;14.90;99.90;;;;;;5210166;28;20470;-75
2022/05/28 07:22:29;;;;;;;3.38;2.10;;;15.10;99.90;;;;;;5208669;28;20590;-78
2022/05/28 07:25:04;;;;;;;2.30;1.50;;;15.10;99.90;;;;;;5174675;28;20043;-75
2022/05/28 07:27:37;;;;;;;3.45;1.70;;;15.10;99.90;;;;;;5206803;28;20020;-76
2022/05/28 07:30:09;;;;;;;2.07;1.60;;;15.00;99.90;;;;;;5210518;28;20180;-77
2022/05/28 07:32:45;;;;;;;1.92;1.35;;;14.90;99.90;;;;;;5210976;28;20373;-79
2022/05/28 07:35:17;;;;;;;4.95;1.63;;;14.50;99.90;;;;;;5191881;28;20033;-78
2022/05/28 07:37:48;;;;;;;3.75;2.00;;;14.00;99.90;;;;;;5192377;28;20033;-75
2022/05/28 07:40:19;;;;;;;1.73;1.63;;;13.70;99.90;;;;;;5179207;28;20030;-76
2022/05/28 07:42:53;;;;;;;3.05;1.90;;;13.40;99.90;;;;;;5193937;28;20030;-78
2022/05/28 07:45:25;;;;;;;3.30;2.00;;;13.00;99.90;;;;;;5194166;28;20083;-75
2022/05/28 07:47:56;;;;;;;3.50;3.20;;;12.70;99.90;;;;;;5172531;28;20208;-77
2022/05/28 07:50:31;;;;;;;3.67;1.85;;;12.50;99.90;;;;;;5198243;28;20025;-79
2022/05/28 07:53:03;;;;;;;2.80;2.50;;;12.40;99.90;;;;;;5192271;28;20067;-75
2022/05/28 07:55:37;;;;;;;1.67;1.58;;;12.10;99.90;;;;;;5205869;28;20036;-79
2022/05/28 07:58:14;;;;;;;3.10;2.40;;;12.00;99.90;;;;;;5185195;28;20251;-76
2022/05/28 08:00:51;;;;;;;2.42;2.22;;;12.00;99.90;;;;;;5175700;28;20034;-75
2022/05/28 08:03:22;;;;;;;3.00;2.20;;;12.00;99.90;;;;;;5164027;28;20358;-77
2022/05/28 08:05:55;;;;;;;2.90;2.70;;;12.10;99.90;;;;;;5167999;28;20060;-76
2022/05/28 08:08:32;;;;;;;5.55;2.03;;;12.10;99.90;;;;;;5166763;28;20046;-77
2022/05/28 08:11:03;;;;;;;6.20;1.95;;;12.00;99.90;;;;;;5222742;28;20037;-75
2022/05/28 08:13:35;;;;;;;3.42;1.90;;;12.00;99.90;;;;;;5204378;28;20053;-78
2022/05/28 08:16:10;;;;;;;2.65;2.45;;;11.80;99.90;;;;;;5197340;28;20032;-76
2022/05/28 08:18:41;;;;;;;4.10;2.78;;;12.00;99.90;;;;;;5198804;28;20370;-77
2022/05/28 08:24:06;;;;;;;4.68;2.40;;;12.60;99.90;;;;;;5197438;28;20243;-75
2022/05/28 08:26:40;;;;;;;4.72;1.65;;;13.10;99.90;;;;;;5199508;28;20366;-76
2022/05/28 08:29:14;;;;;;;3.00;2.55;;;13.30;99.90;;;;;;5193095;28;20029;-78
2022/05/28 08:31:45;;;;;;;3.58;2.33;;;13.70;99.90;;;;;;5204039;28;20353;-75
2022/05/28 08:34:16;;;;;;;7.07;2.22;;;14.10;99.90;;;;;;5193561;28;20050;-77
2022/05/28 08:36:50;;;;;;;2.33;2.10;;;14.50;99.90;;;;;;5175628;28;20284;-76
2022/05/28 08:39:21;;;;;;;1.90;1.80;;;14.90;99.90;;;;;;5187123;28;20045;-76
2022/05/28 08:41:58;;;;;;;2.83;1.55;;;15.20;99.90;;;;;;5228350;28;20031;-78
2022/05/28 08:44:39;;;;;;;2.13;1.63;;;15.00;99.90;;;;;;5207073;28;20039;-77
2022/05/28 08:47:27;;;;;;;3.22;1.80;;;15.10;99.90;;;;;;5188019;28;20037;-76
2022/05/28 08:49:59;;;;;;;2.22;1.83;;;15.30;99.90;;;;;;5204259;28;20048;-77
2022/05/28 08:52:55;;;;;;;1.85;1.75;;;15.60;99.90;;;;;;5199282;28;20037;-79
2022/05/28 08:55:30;;;;;;;1.52;1.42;;;16.20;99.90;;;;;;5199244;28;20319;-75
2022/05/28 08:58:12;;;;;;;4.80;1.80;;;16.60;99.90;;;;;;5199147;28;20022;-76
2022/05/28 09:00:49;;;;;;;1.70;1.60;;;16.70;99.90;;;;;;5172575;28;20033;-79
2022/05/28 09:03:33;;;;;;;1.88;1.77;;;16.60;99.90;;;;;;5199141;28;20071;-76
2022/05/28 09:06:17;;;;;;;3.58;1.30;;;16.50;99.90;;;;;;5203060;28;20037;-75
2022/05/28 09:08:53;;;;;;;2.90;1.77;;;16.90;99.90;;;;;;5213644;28;20032;-75
2022/05/28 09:11:58;;;;;;;1.35;1.25;;;18.00;99.90;;;;;;5201720;28;20056;-74
2022/05/28 09:14:34;;;;;;;1.50;1.40;;;17.90;99.90;;;;;;5216460;28;20070;-76
2022/05/28 09:17:25;;;;;;;2.08;1.25;;;17.10;99.90;;;;;;5219981;28;20033;-76
2022/05/28 09:20:03;;;;;;;4.40;1.40;;;16.80;99.90;;;;;;5194519;28;20035;-75
2022/05/28 09:22:35;;;;;;;3.42;1.27;;;16.40;99.90;;;;;;5200843;28;20055;-77
2022/05/28 09:25:07;;;;;;;3.85;1.60;;;16.50;99.90;;;;;;5218658;28;20310;-75
2022/05/28 09:27:57;;;;;;;1.77;1.25;;;16.90;99.90;;;;;;5220308;28;20323;-75
2022/05/28 09:30:35;;;;;;;1.83;1.73;;;16.90;99.90;;;;;;5217198;28;20330;-74
2022/05/28 09:33:11;;;;;;;3.10;1.67;;;16.90;99.90;;;;;;5220366;28;20035;-76
2022/05/28 09:36:04;;;;;;;1.13;1.10;;;16.60;99.90;;;;;;5219995;28;20318;-75
2022/05/28 09:39:01;;;;;;;1.65;1.55;;;17.30;99.90;;;;;;5220114;28;20215;-78
2022/05/28 09:41:36;;;;;;;3.20;1.52;;;18.00;99.90;;;;;;5218842;28;20037;-74
2022/05/28 09:44:16;;;;;;;1.75;1.65;;;18.30;99.90;;;;;;5219095;28;20483;-76
2022/05/28 09:46:50;;;;;;;3.63;1.63;;;19.00;99.90;;;;;;5219314;28;20028;-77
2022/05/28 09:49:25;;;;;;;4.85;1.80;;;18.70;99.90;;;;;;5215831;28;20027;-79
2022/05/28 09:51:58;;;;;;;1.50;1.40;;;18.20;99.90;;;;;;5200314;28;20032;-78
2022/05/28 09:54:33;;;;;;;2.58;1.77;;;18.20;99.90;;;;;;5222488;28;20021;-76
2022/05/28 09:57:13;;;;;;;1.98;1.88;;;18.30;99.90;;;;;;5213235;28;20360;-77
2022/05/28 09:59:45;;;;;;;1.95;1.75;;;19.10;99.90;;;;;;5201541;28;20123;-77
2022/05/28 10:02:30;;;;;;;3.15;1.45;;;19.30;99.90;;;;;;5218542;28;20017;-76
2022/05/28 10:05:16;;;;;;;1.90;1.67;;;19.60;99.90;;;;;;5204351;28;20053;-75
2022/05/28 10:07:51;;;;;;;2.10;1.13;;;19.40;99.90;;;;;;5215600;28;20037;-77
2022/05/28 10:10:32;;;;;;;2.35;1.25;;;18.00;99.90;;;;;;5221723;28;20306;-76
2022/05/28 10:13:17;;;;;;;2.72;1.25;;;18.00;99.90;;;;;;5205086;28;20031;-77
2022/05/28 10:16:05;;;;;;;1.55;1.10;;;18.60;99.90;;;;;;5217678;28;20221;-77
2022/05/28 10:18:40;;;;;;;1.75;1.20;;;19.40;99.90;;;;;;5203340;28;20043;-76
2022/05/28 10:21:17;;;;;;;2.08;1.58;;;19.60;99.90;;;;;;5221139;28;20579;-76
2022/05/28 10:23:55;;;;;;;4.07;1.50;;;19.30;99.90;;;;;;5222016;28;20031;-77
2022/05/28 10:26:36;;;;;;;1.63;1.25;;;18.70;99.90;;;;;;5223859;28;20027;-75
2022/05/28 10:29:38;;;;;;;3.00;1.67;;;18.60;99.90;;;;;;5226433;28;20290;-76
2022/05/28 10:32:37;;;;;;;3.10;1.10;;;19.40;99.90;;;;;;5209463;28;20021;-77
2022/05/28 10:35:25;;;;;;;4.57;1.60;;;19.80;99.90;;;;;;5227562;28;20027;-79
2022/05/28 10:38:24;;;;;;;1.75;1.30;;;19.20;99.90;;;;;;5207232;28;20029;-76
2022/05/28 10:41:02;;;;;;;1.85;1.30;;;19.90;99.90;;;;;;5216522;28;20036;-77
2022/05/28 10:43:38;;;;;;;1.83;1.73;;;19.90;99.90;;;;;;5211555;28;20029;-77
2022/05/28 10:46:40;;;;;;;2.15;1.30;;;19.90;99.90;;;;;;5228734;28;20017;-79
2022/05/28 10:49:30;;;;;;;1.30;1.20;;;19.10;99.90;;;;;;5227210;28;20013;-78
2022/05/28 10:52:07;;;;;;;4.20;1.23;;;19.80;99.90;;;;;;5228304;28;20021;-79
2022/05/28 10:54:54;;;;;;;2.67;1.50;;;20.00;99.90;;;;;;5232071;28;20031;-78
2022/05/28 10:57:31;;;;;;;1.40;1.13;;;20.00;99.90;;;;;;5226267;28;20223;-76
2022/05/28 11:00:14;;;;;;;1.38;1.27;;;20.70;99.90;;;;;;5229324;28;20023;-79
2022/05/28 11:03:22;;;;;;;0.77;0.77;;;20.40;99.90;;;;;;5229636;28;20035;-77
2022/05/28 11:06:12;;;;;;;1.98;1.27;;;22.10;99.90;;;;;;5190178;28;20067;-77
2022/05/28 11:08:57;;;;;;;2.40;1.50;;;22.10;99.90;;;;;;5196658;28;20033;-77
2022/05/28 11:11:28;;;;;;;;;;;21.60;99.90;;;;;;5192854;28;20053;-76
2022/05/28 11:14:16;;;;;;;3.65;1.25;;;22.30;99.90;;;;;;5209723;28;19905;-79
2022/05/28 11:17:23;;;;;;;1.33;0.98;;;20.90;99.90;;;;;;5220320;28;20039;-76
2022/05/28 11:20:21;;;;;;;1.02;0.95;;;18.80;99.90;;;;;;5221132;28;20025;-76
2022/05/28 11:22:52;;;;;;;1.40;1.30;;;19.30;99.90;;;;;;5172554;28;20472;-75
2022/05/28 11:25:51;;;;;;;1.80;1.10;;;19.50;99.90;;;;;;5229784;28;20037;-74
2022/05/28 11:28:50;;;;;;;1.63;1.20;;;19.90;99.90;;;;;;5226723;28;20020;-75
2022/05/28 11:31:43;;;;;;;1.17;1.10;;;19.20;99.90;;;;;;5226905;28;20038;-73
2022/05/28 11:34:35;;;;;;;1.38;1.17;;;18.30;99.90;;;;;;5227060;28;20028;-78
2022/05/28 11:37:17;;;;;;;3.45;1.98;;;18.60;99.90;;;;;;5207230;28;20415;-77
2022/05/28 11:40:23;;;;;;;3.05;1.17;;;18.60;99.90;;;;;;5204987;28;20475;-78
2022/05/28 11:43:12;;;;;;;3.95;1.00;;;18.10;99.90;;;;;;5199217;28;20473;-77
2022/05/28 11:45:57;;;;;;;1.15;1.05;;;17.00;99.90;;;;;;5226284;28;20021;-78
2022/05/28 11:51:27;;;;;;;;;;;16.40;99.90;;;;;;5228167;28;20237;-75
2022/05/28 11:51:33;;;;;;;2.75;1.30;;;15.80;99.90;;;;;;5228168;28;19901;-78
2022/05/28 11:54:10;;;;;;;2.13;1.27;;;15.50;99.90;;;;;;5230106;28;20033;-76
2022/05/28 11:56:42;;;;;;;2.20;1.40;;;15.60;99.90;;;;;;5230176;28;20375;-76
2022/05/28 11:59:19;;;;;;;1.60;1.50;;;15.50;99.90;;;;;;5230874;28;20210;-78
2022/05/28 12:02:05;;;;;;;2.55;1.40;;;15.50;99.90;;;;;;5230717;28;20025;-75
2022/05/28 12:04:42;;;;;;;2.28;1.40;;;15.20;99.90;;;;;;5215457;28;20418;-78
2022/05/28 12:07:38;;;;;;;5.50;1.20;;;15.00;99.90;;;;;;5219676;28;20027;-76
2022/05/28 12:10:27;;;;;;;1.35;1.25;;;14.50;99.90;;;;;;5226416;28;20013;-78
2022/05/28 12:13:04;;;;;;;1.33;1.20;;;14.30;99.90;;;;;;5227291;28;20204;-75
2022/05/28 12:15:38;;;;;;;1.85;1.50;;;14.20;99.90;;;;;;5208764;28;20025;-79
2022/05/28 12:18:24;;;;;;;1.30;1.27;;;14.10;99.90;;;;;;5227762;28;20456;-78
2022/05/28 12:20:58;;;;;;;2.10;1.65;;;14.30;99.90;;;;;;5222570;28;20043;-80
2022/05/28 12:23:34;;;;;;;1.58;1.25;;;14.50;99.90;;;;;;5227873;28;20027;-77
2022/05/28 12:27:17;;;;;;;1.15;1.05;;;14.70;99.90;;;;;;5209637;28;20033;-76
2022/05/28 12:32:44;;;;;;;1.75;1.52;;;14.90;99.90;;;;;;5222832;28;20511;-77
2022/05/28 12:35:57;;;;;;;1.98;1.40;;;14.90;99.90;;;;;;5203192;28;20042;-78
2022/05/28 12:38:43;;;;;;;3.35;1.30;;;15.00;99.90;;;;;;5205803;28;20194;-77
2022/05/28 12:41:18;;;;;;;1.48;1.13;;;15.10;99.90;;;;;;5202113;28;20033;-79
2022/05/28 12:44:11;;;;;;;1.55;1.20;;;15.10;99.90;;;;;;5200159;28;20039;-78
2022/05/28 12:47:00;;;;;;;1.33;1.20;;;14.70;99.90;;;;;;5204707;28;20338;-78
2022/05/28 12:49:46;;;;;;;2.35;1.98;;;14.10;99.90;;;;;;5209861;28;20042;-76
2022/05/28 12:52:33;;;;;;;0.90;0.90;;;13.70;99.90;;;;;;5189149;28;20026;-76
2022/05/28 12:55:21;;;;;;;1.42;1.13;;;13.20;99.90;;;;;;5196751;28;20554;-74
2022/05/28 12:58:07;;;;;;;2.03;1.30;;;12.80;99.90;;;;;;5208888;28;20021;-79
2022/05/28 13:00:41;;;;;;;2.10;1.23;;;12.80;99.90;;;;;;5207285;28;20051;-76
2022/05/28 13:03:16;;;;;;;1.90;1.80;;;13.20;99.90;;;;;;5210563;28;20017;-78
2022/05/28 13:06:06;;;;;;;1.40;1.30;;;13.60;99.90;;;;;;5211812;28;20061;-80
2022/05/28 13:08:48;;;;;;;1.80;1.30;;;13.80;99.90;;;;;;5209131;28;20029;-79
2022/05/28 13:11:43;;;;;;;1.13;1.13;;;14.20;99.90;;;;;;5224055;28;20029;-78
2022/05/28 13:14:14;;;;;;;;;;;14.30;99.90;;;;;;5191299;28;20453;-75
2022/05/28 13:17:07;;;;;;;1.35;1.25;;;14.10;99.90;;;;;;5212570;28;19913;-75
2022/05/28 13:19:39;;;;;;;1.38;1.27;;;14.10;99.90;;;;;;5214759;28;20039;-78
2022/05/28 13:22:35;;;;;;;1.38;1.35;;;14.10;99.90;;;;;;5209984;28;20013;-81
2022/05/28 13:25:12;;;;;;;1.35;1.10;;;14.20;99.90;;;;;;5199761;28;20022;-77
2022/05/28 13:28:10;;;;;;;4.78;1.42;;;14.30;99.90;;;;;;5206070;28;20045;-76
2022/05/28 13:30:48;;;;;;;1.23;1.17;;;14.40;99.90;;;;;;5203048;28;20013;-77
2022/05/28 13:33:21;;;;;;;1.85;1.45;;;14.40;99.90;;;;;;5201649;28;20063;-79
2022/05/28 13:35:55;;;;;;;1.20;1.10;;;14.50;99.90;;;;;;5200224;28;20041;-78
2022/05/28 13:38:44;;;;;;;1.45;1.05;;;14.40;99.90;;;;;;5210870;28;20017;-78
2022/05/28 13:41:26;;;;;;;2.95;1.52;;;14.30;99.90;;;;;;5227987;28;20031;-77
2022/05/28 13:44:06;;;;;;;1.10;1.00;;;14.40;99.90;;;;;;5224311;28;20024;-78
2022/05/28 13:46:45;;;;;;;1.13;1.02;;;14.50;99.90;;;;;;5226926;28;20043;-79
2022/05/28 13:49:23;;;;;;;1.27;1.17;;;14.80;99.90;;;;;;5226896;28;20043;-77
2022/05/28 13:52:00;;;;;;;1.63;1.20;;;15.10;99.90;;;;;;5227809;28;20065;-81